createdAt,value
2018-09-24T00:00:07.500Z,1.60
2018-09-24T00:02:35.506Z,1.33
2018-09-24T00:05:03.401Z,1.30
2018-09-24T00:07:31.281Z,1.40
2018-09-24T00:09:59.401Z,1.47
2018-09-24T00:12:27.482Z,1.50
2018-09-24T00:14:55.462Z,1.40
2018-09-24T00:17:23.621Z,1.27
2018-09-24T00:19:51.680Z,1.30
2018-09-24T00:22:19.566Z,1.40
2018-09-24T00:24:47.450Z,1.37
2018-09-24T00:27:15.610Z,1.60
2018-09-24T00:29:43.666Z,1.20
2018-09-24T00:32:11.582Z,1.23
2018-09-24T00:34:39.497Z,1.50
2018-09-24T00:37:07.406Z,1.40
2018-09-24T00:39:35.342Z,1.50
2018-09-24T00:42:03.233Z,1.40
2018-09-24T00:44:31.173Z,1.37
2018-09-24T00:46:59.257Z,1.43
2018-09-24T00:49:27.137Z,1.40
2018-09-24T00:51:55.037Z,1.17
2018-09-24T00:54:22.929Z,1.47
2018-09-24T00:56:50.842Z,1.40
2018-09-24T00:59:18.730Z,1.20
2018-09-24T01:01:46.606Z,1.30
2018-09-24T01:04:14.510Z,1.17
2018-09-24T01:06:42.393Z,1.43
2018-09-24T01:09:11.205Z,1.03
2018-09-24T01:11:39.158Z,1.00
2018-09-24T01:14:07.089Z,1.20
2018-09-24T01:16:35.185Z,1.20
2018-09-24T01:19:03.088Z,1.37
2018-09-24T01:21:30.972Z,1.40
2018-09-24T01:23:58.922Z,1.30
2018-09-24T01:26:26.849Z,1.30
2018-09-24T01:28:54.754Z,1.20
2018-09-24T01:31:22.661Z,1.20
2018-09-24T01:33:50.562Z,1.37
2018-09-24T01:36:18.443Z,1.27
2018-09-24T01:38:46.337Z,1.33
2018-09-24T01:41:14.361Z,1.13
2018-09-24T01:43:42.262Z,1.03
2018-09-24T01:46:10.154Z,1.23
2018-09-24T01:48:38.277Z,1.20
2018-09-24T01:51:06.330Z,1.07
2018-09-24T01:53:34.233Z,1.10
2018-09-24T01:56:02.114Z,1.00
2018-09-24T01:58:30.563Z,1.17
2018-09-24T02:00:58.613Z,1.20
2018-09-24T02:03:31.747Z,1.20
2018-09-24T02:05:59.981Z,1.30
2018-09-24T02:08:27.882Z,1.03
2018-09-24T02:10:55.760Z,1.30
2018-09-24T02:13:23.657Z,0.97
2018-09-24T02:15:51.541Z,1.07
2018-09-24T02:18:19.436Z,1.03
2018-09-24T02:20:48.434Z,1.37
2018-09-24T02:23:16.936Z,1.20
2018-09-24T02:25:45.094Z,1.20
2018-09-24T02:28:12.993Z,1.00
2018-09-24T02:30:40.998Z,1.50
2018-09-24T02:33:09.963Z,0.97
2018-09-24T02:35:37.852Z,1.10
2018-09-24T02:38:05.734Z,1.00
2018-09-24T02:40:33.635Z,0.97
2018-09-24T02:43:01.667Z,0.90
2018-09-24T02:45:29.574Z,1.10
2018-09-24T02:47:57.459Z,1.20
2018-09-24T02:50:41.006Z,1.00
2018-09-24T02:53:09.438Z,1.00
2018-09-24T02:55:37.407Z,1.10
2018-09-24T02:58:05.450Z,0.90
2018-09-24T03:00:33.354Z,1.23
2018-09-24T03:03:05.718Z,0.90
2018-09-24T03:05:33.621Z,1.00
2018-09-24T03:08:01.525Z,1.33
2018-09-24T03:10:29.413Z,0.77
2018-09-24T03:12:57.303Z,1.10
2018-09-24T03:15:25.354Z,0.83
2018-09-24T03:17:53.237Z,0.90
2018-09-24T03:20:21.134Z,0.80
2018-09-24T03:22:49.026Z,1.00
2018-09-24T03:25:17.168Z,1.03
2018-09-24T03:27:45.397Z,1.20
2018-09-24T03:30:13.300Z,0.90
2018-09-24T03:32:41.338Z,0.90
2018-09-24T03:35:09.302Z,0.97
2018-09-24T03:37:37.198Z,0.80
2018-09-24T03:40:05.104Z,0.90
2018-09-24T03:42:33.193Z,1.00
2018-09-24T03:45:01.291Z,1.10
2018-09-24T03:47:29.167Z,1.07
2018-09-24T03:49:57.070Z,0.90
2018-09-24T03:52:25.171Z,1.03
2018-09-24T03:54:53.083Z,0.90
2018-09-24T03:57:21.005Z,1.10
2018-09-24T03:59:49.089Z,1.00
2018-09-24T04:02:17.002Z,1.00
2018-09-24T04:04:50.474Z,1.03
2018-09-24T04:07:23.798Z,0.83
2018-09-24T04:09:57.288Z,0.80
2018-09-24T04:12:30.674Z,1.03
2018-09-24T04:15:04.157Z,0.80
2018-09-24T04:17:37.477Z,1.00
2018-09-24T04:20:10.862Z,0.70
2018-09-24T04:22:44.274Z,1.00
2018-09-24T04:25:17.641Z,0.80
2018-09-24T04:27:50.966Z,1.10
2018-09-24T04:30:24.325Z,1.00
2018-09-24T04:32:57.793Z,0.83
2018-09-24T04:35:31.162Z,1.10
2018-09-24T04:38:04.481Z,0.77
2018-09-24T04:40:37.833Z,0.90
2018-09-24T04:43:11.166Z,0.93
2018-09-24T04:45:44.497Z,0.97
2018-09-24T04:48:17.814Z,0.90
2018-09-24T04:50:51.215Z,0.80
2018-09-24T04:53:24.746Z,0.80
2018-09-24T04:55:58.410Z,0.90
2018-09-24T04:58:31.729Z,0.80
2018-09-24T05:01:05.224Z,1.00
2018-09-24T05:03:38.688Z,1.00
2018-09-24T05:06:12.054Z,0.90
2018-09-24T05:08:45.541Z,1.00
2018-09-24T05:11:19.050Z,0.80
2018-09-24T05:13:52.721Z,0.90
2018-09-24T05:16:26.152Z,0.70
2018-09-24T05:18:59.410Z,0.87
2018-09-24T05:21:32.793Z,1.20
2018-09-24T05:24:06.138Z,0.77
2018-09-24T05:26:39.478Z,1.00
2018-09-24T05:29:12.797Z,0.90
2018-09-24T05:31:46.138Z,0.70
2018-09-24T05:34:19.573Z,1.00
2018-09-24T05:36:57.817Z,1.00
2018-09-24T05:39:31.158Z,0.80
2018-09-24T05:42:04.517Z,0.80
2018-09-24T05:44:38.070Z,0.90
2018-09-24T05:47:11.470Z,0.80
2018-09-24T05:49:44.767Z,0.90
2018-09-24T05:52:18.377Z,0.93
2018-09-24T05:54:51.818Z,0.70
2018-09-24T05:57:25.258Z,0.90
2018-09-24T05:59:58.682Z,0.80
2018-09-24T06:02:32.037Z,0.90
2018-09-24T06:05:05.334Z,0.80
2018-09-24T06:07:38.670Z,0.80
2018-09-24T06:10:12.146Z,0.80
2018-09-24T06:12:45.501Z,1.00
2018-09-24T06:15:18.974Z,0.80
2018-09-24T06:17:52.309Z,0.80
2018-09-24T06:20:25.665Z,1.00
2018-09-24T06:22:59.361Z,0.80
2018-09-24T06:25:32.744Z,0.80
2018-09-24T06:28:06.101Z,0.50
2018-09-24T06:30:39.461Z,1.13
2018-09-24T06:33:13.117Z,0.80
2018-09-24T06:35:46.453Z,0.90
2018-09-24T06:38:19.918Z,0.83
2018-09-24T06:40:58.457Z,0.80
2018-09-24T06:43:31.870Z,0.80
2018-09-24T06:46:05.306Z,0.80
2018-09-24T06:48:38.637Z,0.70
2018-09-24T06:51:11.990Z,0.90
2018-09-24T06:53:45.598Z,0.80
2018-09-24T06:56:19.098Z,0.70
2018-09-24T06:58:52.483Z,0.87
2018-09-24T07:01:26.106Z,0.83
2018-09-24T07:03:59.717Z,0.70
2018-09-24T07:06:33.057Z,0.70
2018-09-24T07:09:06.645Z,0.80
2018-09-24T07:11:40.085Z,0.80
2018-09-24T07:14:13.428Z,0.70
2018-09-24T07:16:46.797Z,0.77
2018-09-24T07:19:20.125Z,0.70
2018-09-24T07:21:53.797Z,0.70
2018-09-24T07:24:27.289Z,0.60
2018-09-24T07:27:00.757Z,0.70
2018-09-24T07:29:34.115Z,0.63
2018-09-24T07:32:07.694Z,0.80
2018-09-24T07:34:41.214Z,0.77
2018-09-24T07:37:14.695Z,0.70
2018-09-24T07:39:48.058Z,0.80
2018-09-24T07:42:21.473Z,0.60
2018-09-24T07:44:59.093Z,0.70
2018-09-24T07:47:32.434Z,0.80
2018-09-24T07:50:06.111Z,0.60
2018-09-24T07:52:39.446Z,0.70
2018-09-24T07:55:12.915Z,0.60
2018-09-24T07:57:46.165Z,0.80
2018-09-24T08:00:19.852Z,0.67
2018-09-24T08:02:53.478Z,0.70
2018-09-24T08:05:26.950Z,0.83
2018-09-24T08:08:00.407Z,0.70
2018-09-24T08:10:33.741Z,0.70
2018-09-24T08:13:07.121Z,0.80
2018-09-24T08:15:40.421Z,0.60
2018-09-24T08:18:13.742Z,0.60
2018-09-24T08:20:47.087Z,0.60
2018-09-24T08:23:20.651Z,0.57
2018-09-24T08:25:54.295Z,0.70
2018-09-24T08:28:27.630Z,0.50
2018-09-24T08:31:01.170Z,0.83
2018-09-24T08:33:35.290Z,0.63
2018-09-24T08:36:08.864Z,0.77
2018-09-24T08:38:42.421Z,0.70
2018-09-24T08:41:15.758Z,0.63
2018-09-24T08:43:49.245Z,0.73
2018-09-24T08:46:22.766Z,0.67
2018-09-24T08:48:56.082Z,0.70
2018-09-24T08:51:29.409Z,0.53
2018-09-24T08:54:02.739Z,0.77
2018-09-24T08:56:36.125Z,0.67
2018-09-24T08:59:09.389Z,0.50
2018-09-24T09:01:42.757Z,0.60
2018-09-24T09:04:16.122Z,0.87
2018-09-24T09:06:49.696Z,0.80
2018-09-24T09:09:23.035Z,0.70
2018-09-24T09:11:56.569Z,0.60
2018-09-24T09:14:29.953Z,0.60
2018-09-24T09:17:03.470Z,0.70
2018-09-24T09:19:36.790Z,0.70
2018-09-24T09:22:10.153Z,0.80
2018-09-24T09:24:43.489Z,0.50
2018-09-24T09:27:16.954Z,0.80
2018-09-24T09:29:50.254Z,0.70
2018-09-24T09:32:23.638Z,0.60
2018-09-24T09:34:56.962Z,0.60
2018-09-24T09:37:30.295Z,0.60
2018-09-24T09:40:06.814Z,0.73
2018-09-24T09:42:40.201Z,0.60
2018-09-24T09:45:13.702Z,0.53
2018-09-24T09:47:47.062Z,0.63
2018-09-24T09:50:20.570Z,0.60
2018-09-24T09:52:53.922Z,0.70
2018-09-24T09:55:27.442Z,0.67
2018-09-24T09:58:00.926Z,0.67
2018-09-24T10:00:34.360Z,0.70
2018-09-24T10:03:07.849Z,0.60
2018-09-24T10:05:41.173Z,0.77
2018-09-24T10:08:14.677Z,0.60
2018-09-24T10:10:48.025Z,0.60
2018-09-24T10:13:21.374Z,0.67
2018-09-24T10:15:54.834Z,0.90
2018-09-24T10:18:28.204Z,0.60
2018-09-24T10:21:01.766Z,0.60
2018-09-24T10:23:35.161Z,0.63
2018-09-24T10:26:08.594Z,0.70
2018-09-24T10:28:42.006Z,0.80
2018-09-24T10:31:15.449Z,0.60
2018-09-24T10:33:49.135Z,0.70
2018-09-24T10:36:22.413Z,0.80
2018-09-24T10:38:55.989Z,0.60
2018-09-24T10:41:29.434Z,0.70
2018-09-24T10:44:07.777Z,0.60
2018-09-24T10:46:41.322Z,0.40
2018-09-24T10:49:14.662Z,0.60
2018-09-24T10:51:48.136Z,0.40
2018-09-24T10:54:21.458Z,0.50
2018-09-24T10:56:54.781Z,0.70
2018-09-24T10:59:28.278Z,0.70
2018-09-24T11:02:01.810Z,0.43
2018-09-24T11:04:35.249Z,0.50
2018-09-24T11:07:08.725Z,0.40
2018-09-24T11:09:42.149Z,0.50
2018-09-24T11:12:15.578Z,0.40
2018-09-24T11:14:48.906Z,0.37
2018-09-24T11:17:22.404Z,0.47
2018-09-24T11:19:56.042Z,0.60
2018-09-24T11:22:29.494Z,0.50
2018-09-24T11:25:02.848Z,0.50
2018-09-24T11:27:36.165Z,0.50
2018-09-24T11:30:09.550Z,0.70
2018-09-24T11:32:43.235Z,0.43
2018-09-24T11:35:16.677Z,0.50
2018-09-24T11:37:50.129Z,0.30
2018-09-24T11:40:23.609Z,0.50
2018-09-24T11:42:57.042Z,0.40
2018-09-24T11:45:30.400Z,0.43
2018-09-24T11:48:03.901Z,0.50
2018-09-24T11:50:37.350Z,0.40
2018-09-24T11:53:10.677Z,0.60
2018-09-24T11:55:44.033Z,0.47
2018-09-24T11:58:17.382Z,0.40
2018-09-24T12:00:50.837Z,0.60
2018-09-24T12:03:24.290Z,0.37
2018-09-24T12:05:57.781Z,0.50
2018-09-24T12:08:31.213Z,0.50
2018-09-24T12:11:04.582Z,0.50
2018-09-24T12:13:37.969Z,0.43
2018-09-24T12:16:11.655Z,0.47
2018-09-24T12:18:45.430Z,0.40
2018-09-24T12:21:18.929Z,0.50
2018-09-24T12:23:52.385Z,0.43
2018-09-24T12:26:25.928Z,0.40
2018-09-24T12:28:59.246Z,0.50
2018-09-24T12:31:32.577Z,0.47
2018-09-24T12:34:06.026Z,0.53
2018-09-24T12:36:39.366Z,0.50
2018-09-24T12:39:12.854Z,0.40
2018-09-24T12:41:46.174Z,0.60
2018-09-24T12:44:19.633Z,0.40
2018-09-24T12:46:53.000Z,0.50
2018-09-24T12:49:26.386Z,0.30
2018-09-24T12:51:59.778Z,0.50
2018-09-24T12:54:33.117Z,0.50
2018-09-24T12:57:06.485Z,0.50
2018-09-24T12:59:47.041Z,0.50
2018-09-24T13:02:20.566Z,0.40
2018-09-24T13:04:54.062Z,0.50
2018-09-24T13:07:27.413Z,0.43
2018-09-24T13:10:00.830Z,0.33
2018-09-24T13:12:34.193Z,0.50
2018-09-24T13:15:07.622Z,0.40
2018-09-24T13:17:40.965Z,0.40
2018-09-24T13:20:14.426Z,0.50
2018-09-24T13:22:47.965Z,0.40
2018-09-24T13:25:21.511Z,0.40
2018-09-24T13:27:54.865Z,0.40
2018-09-24T13:30:28.317Z,0.47
2018-09-24T13:33:02.059Z,0.30
2018-09-24T13:35:35.518Z,0.40
2018-09-24T13:38:08.974Z,0.40
2018-09-24T13:40:42.301Z,0.40
2018-09-24T13:43:15.712Z,0.40
2018-09-24T13:45:48.928Z,0.40
2018-09-24T13:48:22.297Z,0.43
2018-09-24T13:50:55.638Z,0.40
2018-09-24T13:53:29.036Z,0.30
2018-09-24T13:56:02.345Z,0.30
2018-09-24T13:58:35.697Z,0.57
2018-09-24T14:01:09.153Z,0.40
2018-09-24T14:03:42.504Z,0.37
2018-09-24T14:06:15.958Z,0.67
2018-09-24T14:08:49.305Z,0.30
2018-09-24T14:11:22.738Z,0.40
2018-09-24T14:13:56.098Z,0.40
2018-09-24T14:16:29.521Z,0.47
2018-09-24T14:19:02.885Z,0.50
2018-09-24T14:21:36.454Z,0.40
2018-09-24T14:24:09.836Z,0.30
2018-09-24T14:26:43.177Z,0.30
2018-09-24T14:29:16.666Z,0.40
2018-09-24T14:31:50.017Z,0.30
2018-09-24T14:34:23.353Z,0.40
2018-09-24T14:36:56.922Z,0.30
2018-09-24T14:39:30.275Z,0.30
2018-09-24T14:42:03.697Z,0.50
2018-09-24T14:44:37.106Z,0.40
2018-09-24T14:47:10.637Z,0.37
2018-09-24T14:49:43.961Z,0.50
2018-09-24T14:52:17.310Z,0.50
2018-09-24T14:54:50.678Z,0.50
2018-09-24T14:57:24.004Z,0.37
2018-09-24T14:59:57.498Z,0.50
2018-09-24T15:02:30.826Z,0.40
2018-09-24T15:05:04.317Z,0.50
2018-09-24T15:07:37.662Z,0.50
2018-09-24T15:10:11.097Z,0.40
2018-09-24T15:12:44.539Z,0.50
2018-09-24T15:15:18.154Z,0.50
2018-09-24T15:17:51.496Z,0.40
2018-09-24T15:20:24.837Z,0.40
2018-09-24T15:22:58.290Z,0.30
2018-09-24T15:25:31.705Z,0.40
2018-09-24T15:28:05.253Z,0.30
2018-09-24T15:30:38.641Z,0.30
2018-09-24T15:33:11.966Z,0.37
2018-09-24T15:35:45.298Z,0.30
2018-09-24T15:38:18.594Z,0.43
2018-09-24T15:40:52.117Z,0.30
2018-09-24T15:43:25.521Z,0.40
2018-09-24T15:45:59.187Z,0.50
2018-09-24T15:48:32.628Z,0.40
2018-09-24T15:51:05.965Z,0.30
2018-09-24T15:53:39.301Z,0.33
2018-09-24T15:56:12.613Z,0.27
2018-09-24T15:58:45.941Z,0.30
2018-09-24T16:01:19.302Z,0.40
2018-09-24T16:03:52.622Z,0.40
2018-09-24T16:06:25.981Z,0.30
2018-09-24T16:08:59.460Z,0.30
2018-09-24T16:11:32.962Z,0.50
2018-09-24T16:14:06.338Z,0.40
2018-09-24T16:16:39.779Z,0.33
2018-09-24T16:19:13.217Z,0.50
2018-09-24T16:21:46.837Z,0.37
2018-09-24T16:24:20.326Z,0.40
2018-09-24T16:26:53.722Z,0.50
2018-09-24T16:29:27.058Z,0.47
2018-09-24T16:32:00.409Z,0.40
2018-09-24T16:34:33.709Z,0.30
2018-09-24T16:37:07.214Z,0.50
2018-09-24T16:39:40.544Z,0.50
2018-09-24T16:42:14.077Z,0.27
2018-09-24T16:44:47.377Z,0.40
2018-09-24T16:47:20.734Z,0.40
2018-09-24T16:49:54.143Z,0.40
2018-09-24T16:52:27.637Z,0.40
2018-09-24T16:55:00.961Z,0.30
2018-09-24T16:57:34.445Z,0.30
2018-09-24T17:00:07.804Z,0.40
2018-09-24T17:02:41.122Z,0.40
2018-09-24T17:05:14.574Z,0.40
2018-09-24T17:07:47.946Z,0.33
2018-09-24T17:10:21.157Z,0.40
2018-09-24T17:12:54.641Z,0.47
2018-09-24T17:15:27.958Z,0.40
2018-09-24T17:18:01.314Z,0.60
2018-09-24T17:20:34.641Z,0.37
2018-09-24T17:23:07.970Z,0.40
2018-09-24T17:25:41.297Z,0.47
2018-09-24T17:28:14.658Z,0.40
2018-09-24T17:30:48.206Z,0.53
2018-09-24T17:33:21.885Z,0.40
2018-09-24T17:35:55.212Z,0.40
2018-09-24T17:38:28.765Z,0.30
2018-09-24T17:41:02.089Z,0.40
2018-09-24T17:43:35.602Z,0.47
2018-09-24T17:46:09.109Z,0.40
2018-09-24T17:48:42.533Z,0.30
2018-09-24T17:51:16.158Z,0.60
2018-09-24T17:53:49.490Z,0.40
2018-09-24T17:56:22.809Z,0.50
2018-09-24T17:58:56.290Z,0.40
2018-09-24T18:01:29.593Z,0.30
2018-09-24T18:04:03.246Z,0.50
2018-09-24T18:06:36.778Z,0.50
2018-09-24T18:09:11.506Z,0.40
2018-09-24T18:11:45.002Z,0.50
2018-09-24T18:14:18.562Z,0.50
2018-09-24T18:16:52.086Z,0.50
2018-09-24T18:19:25.427Z,0.30
2018-09-24T18:21:58.837Z,0.50
2018-09-24T18:24:32.169Z,0.37
2018-09-24T18:27:05.519Z,0.50
2018-09-24T18:29:38.857Z,0.40
2018-09-24T18:32:12.202Z,0.33
2018-09-24T18:34:45.802Z,0.47
2018-09-24T18:37:19.427Z,0.37
2018-09-24T18:39:52.731Z,0.30
2018-09-24T18:42:26.339Z,0.50
2018-09-24T18:44:59.798Z,0.50
2018-09-24T18:47:33.117Z,0.30
2018-09-24T18:50:06.501Z,0.50
2018-09-24T18:52:39.807Z,0.40
2018-09-24T18:55:13.166Z,0.40
2018-09-24T18:57:46.575Z,0.30
2018-09-24T19:00:19.974Z,0.40
2018-09-24T19:02:53.665Z,0.50
2018-09-24T19:05:27.074Z,0.40
2018-09-24T19:08:00.375Z,0.50
2018-09-24T19:10:33.698Z,0.50
2018-09-24T19:13:07.431Z,0.30
2018-09-24T19:15:40.794Z,0.50
2018-09-24T19:18:14.164Z,0.33
2018-09-24T19:20:47.597Z,0.30
2018-09-24T19:23:21.065Z,0.30
2018-09-24T19:25:54.425Z,0.40
2018-09-24T19:28:27.942Z,0.40
2018-09-24T19:31:01.331Z,0.50
2018-09-24T19:33:35.030Z,0.40
2018-09-24T19:36:08.390Z,0.50
2018-09-24T19:38:41.958Z,0.40
2018-09-24T19:41:15.318Z,0.37
2018-09-24T19:43:48.639Z,0.40
2018-09-24T19:46:22.007Z,0.40
2018-09-24T19:48:55.489Z,0.40
2018-09-24T19:51:28.798Z,0.40
2018-09-24T19:54:02.249Z,0.43
2018-09-24T19:56:35.634Z,0.40
2018-09-24T19:59:09.606Z,0.40
2018-09-24T20:01:43.024Z,0.50
2018-09-24T20:04:16.266Z,0.40
2018-09-24T20:06:49.625Z,0.40
2018-09-24T20:09:23.171Z,0.50
2018-09-24T20:11:56.753Z,0.50
2018-09-24T20:14:30.477Z,0.40
2018-09-24T20:17:03.974Z,0.30
2018-09-24T20:19:37.405Z,0.30
2018-09-24T20:22:12.070Z,0.80
2018-09-24T20:24:45.686Z,0.30
2018-09-24T20:27:19.230Z,0.50
2018-09-24T20:29:52.669Z,0.40
2018-09-24T20:32:26.032Z,0.30
2018-09-24T20:34:59.350Z,0.57
2018-09-24T20:37:32.685Z,0.60
2018-09-24T20:40:06.210Z,0.50
2018-09-24T20:42:39.674Z,0.50
2018-09-24T20:45:13.385Z,0.40
2018-09-24T20:47:46.697Z,0.37
2018-09-24T20:50:20.122Z,0.40
2018-09-24T20:52:53.580Z,0.50
2018-09-24T20:55:26.826Z,0.40
2018-09-24T20:58:00.165Z,0.50
2018-09-24T21:00:33.612Z,0.50
2018-09-24T21:03:07.002Z,0.50
2018-09-24T21:05:40.563Z,0.50
2018-09-24T21:08:14.225Z,0.50
2018-09-24T21:10:47.669Z,0.40
2018-09-24T21:13:21.030Z,0.30
2018-09-24T21:15:54.681Z,0.60
2018-09-24T21:18:28.045Z,0.47
2018-09-24T21:21:01.354Z,0.40
2018-09-24T21:23:34.833Z,0.43
2018-09-24T21:26:08.162Z,0.60
2018-09-24T21:28:41.505Z,0.23
2018-09-24T21:31:14.901Z,0.40
2018-09-24T21:33:48.257Z,0.50
2018-09-24T21:36:21.687Z,0.40
2018-09-24T21:38:55.009Z,0.40
2018-09-24T21:41:28.357Z,0.43
2018-09-24T21:44:01.802Z,0.50
2018-09-24T21:46:35.260Z,0.50
2018-09-24T21:49:08.497Z,0.30
2018-09-24T21:51:42.102Z,0.50
2018-09-24T21:54:15.604Z,0.70
2018-09-24T21:56:48.997Z,0.43
2018-09-24T21:59:22.361Z,0.50
2018-09-24T22:01:55.806Z,0.50
2018-09-24T22:04:29.397Z,0.50
2018-09-24T22:07:04.202Z,0.40
2018-09-24T22:09:37.977Z,0.50
2018-09-24T22:12:11.713Z,0.40
2018-09-24T22:14:45.077Z,0.53
2018-09-24T22:17:18.426Z,0.40
2018-09-24T22:19:51.765Z,0.37
2018-09-24T22:22:26.101Z,0.40
2018-09-24T22:24:59.670Z,0.50
2018-09-24T22:27:32.990Z,0.40
2018-09-24T22:30:06.361Z,0.40
2018-09-24T22:32:39.917Z,0.40
2018-09-24T22:35:13.393Z,0.40
2018-09-24T22:37:46.778Z,0.40
2018-09-24T22:40:20.250Z,0.40
2018-09-24T22:42:53.551Z,0.40
2018-09-24T22:45:27.013Z,0.60
2018-09-24T22:48:00.333Z,0.40
2018-09-24T22:50:33.882Z,0.40
2018-09-24T22:53:07.342Z,0.57
2018-09-24T22:55:40.877Z,0.50
2018-09-24T22:58:14.222Z,0.50
2018-09-24T23:00:47.562Z,0.67
2018-09-24T23:03:20.849Z,0.37
2018-09-24T23:05:54.369Z,0.57
2018-09-24T23:08:27.805Z,0.53
2018-09-24T23:11:01.178Z,0.37
2018-09-24T23:13:34.637Z,0.40
2018-09-24T23:16:08.011Z,0.53
2018-09-24T23:18:41.349Z,0.43
2018-09-24T23:21:14.828Z,0.50
2018-09-24T23:23:48.158Z,0.40
2018-09-24T23:26:21.618Z,0.40
2018-09-24T23:28:55.062Z,0.40
2018-09-24T23:31:28.425Z,0.43
2018-09-24T23:34:02.118Z,0.40
2018-09-24T23:36:35.449Z,0.50
2018-09-24T23:39:08.946Z,0.40
2018-09-24T23:41:42.320Z,0.50
2018-09-24T23:44:15.874Z,0.40
2018-09-24T23:46:49.541Z,0.27
2018-09-24T23:49:23.010Z,0.30
2018-09-24T23:51:56.330Z,0.50
2018-09-24T23:54:29.837Z,0.37
2018-09-24T23:57:03.218Z,0.50
2018-09-24T23:59:36.670Z,0.50
